createdAt,value
2017-09-11T00:01:15.674Z,3.20
2017-09-11T00:03:43.935Z,2.73
2017-09-11T00:06:11.400Z,3.20
2017-09-11T00:08:39.631Z,3.30
2017-09-11T00:11:07.089Z,3.40
2017-09-11T00:13:34.548Z,2.90
2017-09-11T00:16:02.024Z,4.30
2017-09-11T00:18:29.479Z,3.07
2017-09-11T00:20:56.931Z,2.83
2017-09-11T00:23:24.517Z,2.47
2017-09-11T00:25:52.063Z,2.13
2017-09-11T00:28:19.524Z,1.80
2017-09-11T00:30:47.853Z,2.30
2017-09-11T00:33:15.351Z,2.10
2017-09-11T00:35:42.815Z,2.90
2017-09-11T00:38:10.880Z,3.33
2017-09-11T00:41:08.823Z,2.90
2017-09-11T00:43:37.123Z,3.30
2017-09-11T00:46:04.699Z,3.50
2017-09-11T00:48:32.172Z,3.37
2017-09-11T00:51:00.388Z,3.30
2017-09-11T00:53:27.845Z,3.80
2017-09-11T00:55:55.316Z,2.70
2017-09-11T00:58:22.772Z,2.60
2017-09-11T01:00:50.250Z,3.03
2017-09-11T01:03:17.708Z,2.87
2017-09-11T01:05:45.937Z,1.90
2017-09-11T01:08:13.403Z,2.27
2017-09-11T01:10:40.886Z,2.70
2017-09-11T01:13:08.346Z,2.43
2017-09-11T01:15:35.811Z,2.03
2017-09-11T01:18:03.364Z,2.37
2017-09-11T01:20:30.919Z,1.80
2017-09-11T01:22:58.384Z,2.10
2017-09-11T01:25:25.934Z,2.00
2017-09-11T01:27:53.912Z,1.83
2017-09-11T01:30:21.371Z,2.80
2017-09-11T01:32:48.843Z,2.40
2017-09-11T01:35:17.068Z,2.50
2017-09-11T01:37:44.534Z,2.67
2017-09-11T01:40:12.106Z,2.23
2017-09-11T01:42:41.253Z,1.90
2017-09-11T01:45:08.706Z,1.93
2017-09-11T01:47:36.184Z,1.63
2017-09-11T01:50:03.644Z,2.10
2017-09-11T01:52:31.115Z,3.00
2017-09-11T01:54:58.692Z,1.90
2017-09-11T01:57:26.160Z,1.73
2017-09-11T01:59:54.317Z,2.10
2017-09-11T02:02:21.782Z,2.43
2017-09-11T02:04:50.023Z,2.57
2017-09-11T02:07:17.498Z,2.33
2017-09-11T02:09:45.068Z,2.20
2017-09-11T02:12:12.632Z,2.43
2017-09-11T02:14:40.088Z,1.80
2017-09-11T02:17:07.558Z,2.50
2017-09-11T02:19:35.630Z,2.53
2017-09-11T02:22:03.887Z,3.10
2017-09-11T02:24:31.359Z,2.17
2017-09-11T02:26:58.902Z,2.80
2017-09-11T02:29:26.364Z,2.30
2017-09-11T02:31:53.827Z,2.53
2017-09-11T02:34:22.095Z,1.93
2017-09-11T02:36:49.656Z,2.73
2017-09-11T02:39:17.212Z,2.27
2017-09-11T02:41:44.765Z,2.70
2017-09-11T02:44:12.231Z,2.40
2017-09-11T02:46:40.620Z,2.10
2017-09-11T02:49:08.872Z,2.63
2017-09-11T02:51:36.339Z,2.80
2017-09-11T02:54:03.807Z,2.20
2017-09-11T02:56:32.160Z,2.13
2017-09-11T02:58:59.608Z,3.10
2017-09-11T03:01:27.096Z,2.13
2017-09-11T03:03:54.644Z,1.90
2017-09-11T03:06:22.104Z,2.23
2017-09-11T03:08:49.659Z,2.40
2017-09-11T03:11:17.119Z,2.40
2017-09-11T03:13:44.579Z,2.50
2017-09-11T03:16:12.124Z,2.30
2017-09-11T03:18:40.359Z,2.00
2017-09-11T03:21:07.823Z,2.50
2017-09-11T03:23:35.312Z,2.17
2017-09-11T03:26:02.775Z,3.53
2017-09-11T03:28:30.846Z,2.43
2017-09-11T03:30:58.321Z,2.33
2017-09-11T03:33:26.583Z,2.20
2017-09-11T03:35:54.855Z,2.47
2017-09-11T03:38:22.323Z,4.17
2017-09-11T03:40:50.542Z,2.43
2017-09-11T03:43:18.052Z,3.33
2017-09-11T03:45:46.319Z,3.50
2017-09-11T03:48:13.778Z,3.07
2017-09-11T03:50:41.244Z,3.80
2017-09-11T03:53:09.483Z,4.60
2017-09-11T03:55:36.959Z,3.40
2017-09-11T03:58:04.440Z,3.00
2017-09-11T04:00:32.691Z,3.17
2017-09-11T04:03:00.159Z,3.57
2017-09-11T04:05:27.617Z,2.50
2017-09-11T04:07:55.091Z,3.70
2017-09-11T04:10:23.324Z,2.50
2017-09-11T04:12:50.801Z,3.33
2017-09-11T04:15:18.460Z,2.93
2017-09-11T04:17:45.927Z,3.67
2017-09-11T04:20:14.161Z,3.57
2017-09-11T04:22:41.639Z,3.87
2017-09-11T04:25:09.200Z,3.47
2017-09-11T04:27:36.755Z,3.37
2017-09-11T04:30:04.320Z,3.50
2017-09-11T04:32:31.792Z,3.87
2017-09-11T04:35:00.047Z,3.70
2017-09-11T04:37:27.520Z,3.70
2017-09-11T04:39:55.063Z,3.10
2017-09-11T04:42:22.527Z,4.40
2017-09-11T04:44:49.990Z,4.10
2017-09-11T04:47:18.214Z,4.10
2017-09-11T04:49:45.670Z,4.10
2017-09-11T04:52:13.176Z,4.80
2017-09-11T04:54:40.671Z,4.20
2017-09-11T04:57:08.816Z,3.60
2017-09-11T04:59:37.980Z,3.97
2017-09-11T05:02:05.440Z,3.30
2017-09-11T05:04:33.071Z,3.83
2017-09-11T05:07:00.551Z,3.30
2017-09-11T05:09:28.088Z,4.00
2017-09-11T05:11:55.603Z,4.43
2017-09-11T05:14:23.856Z,3.90
2017-09-11T05:16:51.308Z,4.57
2017-09-11T05:19:18.766Z,4.03
2017-09-11T05:21:46.232Z,3.63
2017-09-11T05:24:13.698Z,3.40
2017-09-11T05:26:41.936Z,5.80
2017-09-11T05:29:09.403Z,4.50
2017-09-11T05:31:36.864Z,3.20
2017-09-11T05:34:04.340Z,3.90
2017-09-11T05:36:31.808Z,3.77
2017-09-11T05:39:00.040Z,3.60
2017-09-11T05:41:27.504Z,4.50
2017-09-11T05:43:55.003Z,4.03
2017-09-11T05:46:22.492Z,3.80
2017-09-11T05:48:49.995Z,5.30
2017-09-11T05:51:17.474Z,4.57
2017-09-11T05:53:45.704Z,4.40
2017-09-11T05:56:13.170Z,3.80
2017-09-11T05:58:40.664Z,4.60
2017-09-11T06:01:08.898Z,3.70
2017-09-11T06:03:37.276Z,4.20
2017-09-11T06:06:05.060Z,3.83
2017-09-11T06:08:32.531Z,3.40
2017-09-11T06:11:00.767Z,3.50
2017-09-11T06:13:28.672Z,4.10
2017-09-11T06:15:56.915Z,4.23
2017-09-11T06:18:24.387Z,4.40
2017-09-11T06:20:51.966Z,3.87
2017-09-11T06:23:20.187Z,3.77
2017-09-11T06:25:47.656Z,3.43
2017-09-11T06:28:15.351Z,3.90
2017-09-11T06:30:43.592Z,3.73
2017-09-11T06:33:11.073Z,4.03
2017-09-11T06:35:38.543Z,3.77
2017-09-11T06:38:08.327Z,4.00
2017-09-11T06:40:36.712Z,4.10
2017-09-11T06:43:04.183Z,3.87
2017-09-11T06:45:32.409Z,4.77
2017-09-11T06:47:59.872Z,5.40
2017-09-11T06:50:27.339Z,4.53
2017-09-11T06:52:54.843Z,3.97
2017-09-11T06:55:23.066Z,4.60
2017-09-11T06:57:50.548Z,5.00
2017-09-11T07:00:18.104Z,3.97
2017-09-11T07:02:45.555Z,5.03
2017-09-11T07:05:13.043Z,4.50
2017-09-11T07:07:41.259Z,4.63
2017-09-11T07:10:08.726Z,3.23
2017-09-11T07:12:48.187Z,4.23
2017-09-11T07:15:15.656Z,5.40
2017-09-11T07:17:43.880Z,4.77
2017-09-11T07:20:11.379Z,4.43
2017-09-11T07:22:38.931Z,4.30
2017-09-11T07:25:06.395Z,4.87
2017-09-11T07:27:34.768Z,3.70
2017-09-11T07:30:02.230Z,3.37
2017-09-11T07:32:29.707Z,4.33
2017-09-11T07:34:57.938Z,4.50
2017-09-11T07:37:25.401Z,4.03
2017-09-11T07:39:52.894Z,3.63
2017-09-11T07:42:21.145Z,3.60
2017-09-11T07:44:48.603Z,3.53
2017-09-11T07:47:16.064Z,4.03
2017-09-11T07:49:43.570Z,4.07
2017-09-11T07:52:11.771Z,4.90
2017-09-11T07:54:39.230Z,3.70
2017-09-11T07:57:06.835Z,4.50
2017-09-11T07:59:35.066Z,4.13
2017-09-11T08:02:02.543Z,4.50
2017-09-11T08:04:30.015Z,4.63
2017-09-11T08:06:58.269Z,4.90
2017-09-11T08:09:25.735Z,3.60
2017-09-11T08:11:53.211Z,4.63
2017-09-11T08:14:21.514Z,4.17
2017-09-11T08:16:48.976Z,3.47
2017-09-11T08:19:16.488Z,3.67
2017-09-11T08:21:44.085Z,3.53
2017-09-11T08:24:11.547Z,4.00
2017-09-11T08:26:39.051Z,4.30
2017-09-11T08:29:06.608Z,5.63
2017-09-11T08:31:34.172Z,4.20
2017-09-11T08:34:01.644Z,3.63
2017-09-11T08:36:29.870Z,3.87
2017-09-11T08:38:57.340Z,3.13
2017-09-11T08:41:24.913Z,4.30
2017-09-11T08:43:52.496Z,3.73
2017-09-11T08:46:20.715Z,4.80
2017-09-11T08:48:48.316Z,3.60
2017-09-11T08:51:16.684Z,5.37
2017-09-11T08:53:44.247Z,4.13
2017-09-11T08:56:11.795Z,4.17
2017-09-11T08:58:39.378Z,3.50
2017-09-11T09:01:07.595Z,4.20
2017-09-11T09:03:35.065Z,3.77
2017-09-11T09:06:02.890Z,3.20
2017-09-11T09:08:31.133Z,4.00
2017-09-11T09:10:58.598Z,4.30
2017-09-11T09:13:26.845Z,5.83
2017-09-11T09:15:55.148Z,5.73
2017-09-11T09:18:22.621Z,3.77
2017-09-11T09:20:50.852Z,4.60
2017-09-11T09:23:18.326Z,3.97
2017-09-11T09:25:47.304Z,3.90
2017-09-11T09:28:14.788Z,4.03
2017-09-11T09:30:43.020Z,4.60
2017-09-11T09:33:10.828Z,4.50
2017-09-11T09:35:39.061Z,4.10
2017-09-11T09:38:06.557Z,5.00
2017-09-11T09:40:34.113Z,3.77
2017-09-11T09:43:01.588Z,3.17
2017-09-11T09:45:29.814Z,4.80
2017-09-11T09:47:58.051Z,4.27
2017-09-11T09:50:25.535Z,5.17
2017-09-11T09:52:52.987Z,3.87
2017-09-11T09:55:20.497Z,4.80
2017-09-11T09:57:47.943Z,4.30
2017-09-11T10:00:15.501Z,4.57
2017-09-11T10:02:42.976Z,3.80
2017-09-11T10:05:11.199Z,4.83
2017-09-11T10:07:38.663Z,4.30
2017-09-11T10:10:06.248Z,4.37
2017-09-11T10:12:34.602Z,4.47
2017-09-11T10:15:02.090Z,5.00
2017-09-11T10:17:29.596Z,4.90
2017-09-11T10:19:57.072Z,3.47
2017-09-11T10:22:24.545Z,4.60
2017-09-11T10:24:52.184Z,3.93
2017-09-11T10:27:19.644Z,5.63
2017-09-11T10:29:47.108Z,4.90
2017-09-11T10:32:14.598Z,4.23
2017-09-11T10:34:42.843Z,4.73
2017-09-11T10:37:10.327Z,3.50
2017-09-11T10:39:38.924Z,4.80
2017-09-11T10:42:07.156Z,4.03
2017-09-11T10:44:34.619Z,4.00
2017-09-11T10:47:02.083Z,3.13
2017-09-11T10:49:29.541Z,2.70
2017-09-11T10:51:57.030Z,4.27
2017-09-11T10:54:24.567Z,4.80
2017-09-11T10:56:52.264Z,4.33
2017-09-11T10:59:19.719Z,4.83
2017-09-11T11:01:47.227Z,3.13
2017-09-11T11:04:14.688Z,3.03
2017-09-11T11:06:42.248Z,2.70
2017-09-11T11:09:09.835Z,2.43
2017-09-11T11:11:38.058Z,3.50
2017-09-11T11:14:05.539Z,2.90
2017-09-11T11:16:33.011Z,2.70
2017-09-11T11:19:01.243Z,2.80
2017-09-11T11:21:28.728Z,3.00
2017-09-11T11:23:56.288Z,2.83
2017-09-11T11:26:23.743Z,2.93
2017-09-11T11:28:51.203Z,3.27
2017-09-11T11:31:18.960Z,3.43
2017-09-11T11:33:46.428Z,2.50
2017-09-11T11:36:13.883Z,2.80
2017-09-11T11:38:41.359Z,2.87
2017-09-11T11:41:09.591Z,3.37
2017-09-11T11:43:37.048Z,4.70
2017-09-11T11:46:04.515Z,3.27
2017-09-11T11:48:31.978Z,2.80
2017-09-11T11:50:59.535Z,4.83
2017-09-11T11:53:27.010Z,4.10
2017-09-11T11:55:55.248Z,4.03
2017-09-11T11:58:22.712Z,3.00
2017-09-11T12:00:50.439Z,4.13
2017-09-11T12:03:17.900Z,2.77
2017-09-11T12:05:45.354Z,3.50
2017-09-11T12:08:12.840Z,4.33
2017-09-11T12:10:40.300Z,3.10
2017-09-11T12:13:07.828Z,3.97
2017-09-11T12:15:35.301Z,3.80
2017-09-11T12:18:02.789Z,3.60
2017-09-11T12:20:30.238Z,4.00
2017-09-11T12:22:58.004Z,3.60
2017-09-11T12:25:25.467Z,3.10
2017-09-11T12:27:53.358Z,3.27
2017-09-11T12:30:21.591Z,3.77
2017-09-11T12:32:49.159Z,4.43
2017-09-11T12:35:17.455Z,4.23
2017-09-11T12:37:45.700Z,3.03
2017-09-11T12:40:13.275Z,4.37
2017-09-11T12:42:40.835Z,3.97
2017-09-11T12:45:08.619Z,4.00
2017-09-11T12:47:36.058Z,3.40
2017-09-11T12:50:03.614Z,3.67
2017-09-11T12:52:31.861Z,3.90
2017-09-11T12:54:59.376Z,2.70
2017-09-11T12:57:27.618Z,3.03
2017-09-11T12:59:56.608Z,3.93
2017-09-11T13:02:24.088Z,3.23
2017-09-11T13:04:52.343Z,3.23
2017-09-11T13:07:19.820Z,3.77
2017-09-11T13:09:48.052Z,2.60
2017-09-11T13:12:15.515Z,3.27
2017-09-11T13:14:43.307Z,4.60
2017-09-11T13:17:11.541Z,3.90
2017-09-11T13:19:39.039Z,3.40
2017-09-11T13:22:06.788Z,3.10
2017-09-11T13:24:34.347Z,2.10
2017-09-11T13:27:01.840Z,2.90
2017-09-11T13:29:29.317Z,3.07
2017-09-11T13:31:56.819Z,2.50
2017-09-11T13:34:24.294Z,2.50
2017-09-11T13:36:52.576Z,2.60
2017-09-11T13:39:20.855Z,2.90
2017-09-11T13:41:48.301Z,2.20
2017-09-11T13:44:16.548Z,3.40
2017-09-11T13:46:44.028Z,2.00
2017-09-11T13:49:11.491Z,2.20
2017-09-11T13:51:39.745Z,3.03
2017-09-11T13:54:07.316Z,3.07
2017-09-11T13:56:34.783Z,2.60
2017-09-11T13:59:03.023Z,3.80
2017-09-11T14:01:30.508Z,3.37
2017-09-11T14:03:57.964Z,2.47
2017-09-11T14:06:26.244Z,3.00
2017-09-11T14:08:53.801Z,3.50
2017-09-11T14:11:22.068Z,1.83
2017-09-11T14:13:49.801Z,1.87
2017-09-11T14:16:17.260Z,2.50
2017-09-11T14:18:44.715Z,2.50
2017-09-11T14:21:12.223Z,2.33
2017-09-11T14:23:40.460Z,1.70
2017-09-11T14:26:07.923Z,2.03
2017-09-11T14:28:35.651Z,2.60
2017-09-11T14:31:03.114Z,2.20
2017-09-11T14:33:30.579Z,2.33
2017-09-11T14:35:58.283Z,1.93
2017-09-11T14:38:26.515Z,2.80
2017-09-11T14:40:53.988Z,3.90
2017-09-11T14:43:21.458Z,2.60
2017-09-11T14:45:48.920Z,2.80
2017-09-11T14:48:17.931Z,2.57
2017-09-11T14:50:47.744Z,2.60
2017-09-11T14:53:15.226Z,2.93
2017-09-11T14:55:42.708Z,2.00
2017-09-11T14:58:10.183Z,2.40
2017-09-11T15:00:37.639Z,2.30
2017-09-11T15:03:05.095Z,2.23
2017-09-11T15:05:32.580Z,2.37
2017-09-11T15:08:00.818Z,2.20
2017-09-11T15:10:28.308Z,2.30
2017-09-11T15:12:56.551Z,3.03
2017-09-11T15:15:24.280Z,4.63
2017-09-11T15:17:51.764Z,2.17
2017-09-11T15:20:19.340Z,2.37
2017-09-11T15:22:46.804Z,2.33
2017-09-11T15:25:14.400Z,2.43
2017-09-11T15:27:41.932Z,2.23
2017-09-11T15:30:10.187Z,2.50
2017-09-11T15:32:37.653Z,3.30
2017-09-11T15:35:05.436Z,3.10
2017-09-11T15:37:33.668Z,3.63
2017-09-11T15:40:01.128Z,2.87
2017-09-11T15:42:28.724Z,3.13
2017-09-11T15:44:57.031Z,2.60
2017-09-11T15:47:24.527Z,2.40
2017-09-11T15:49:52.181Z,3.50
2017-09-11T15:52:19.643Z,3.30
2017-09-11T15:54:47.119Z,2.57
2017-09-11T15:57:14.613Z,3.37
2017-09-11T15:59:42.071Z,3.07
2017-09-11T16:02:09.692Z,2.47
2017-09-11T16:04:38.240Z,3.30
2017-09-11T16:07:06.195Z,3.93
2017-09-11T16:09:33.655Z,3.07
2017-09-11T16:12:01.129Z,3.20
2017-09-11T16:14:28.606Z,3.20
2017-09-11T16:16:56.068Z,3.20
2017-09-11T16:19:23.556Z,4.03
2017-09-11T16:21:51.028Z,5.17
2017-09-11T16:24:18.500Z,3.90
2017-09-11T16:26:45.975Z,5.10
2017-09-11T16:29:13.449Z,4.30
2017-09-11T16:31:41.009Z,3.60
2017-09-11T16:34:08.483Z,3.80
2017-09-11T16:36:36.712Z,2.77
2017-09-11T16:39:04.196Z,3.90
2017-09-11T16:41:31.759Z,2.93
2017-09-11T16:43:59.239Z,3.70
2017-09-11T16:46:27.464Z,3.97
2017-09-11T16:48:54.943Z,3.00
2017-09-11T16:51:22.437Z,2.83
2017-09-11T16:53:49.895Z,3.33
2017-09-11T16:56:18.453Z,3.47
2017-09-11T16:58:45.916Z,3.33
2017-09-11T17:01:15.067Z,3.20
2017-09-11T17:03:42.912Z,3.67
2017-09-11T17:06:10.360Z,4.13
2017-09-11T17:08:37.844Z,2.87
2017-09-11T17:11:05.316Z,4.03
2017-09-11T17:13:32.815Z,3.10
2017-09-11T17:16:01.059Z,3.80
2017-09-11T17:18:28.805Z,3.43
2017-09-11T17:20:56.255Z,2.70
2017-09-11T17:23:23.723Z,3.37
2017-09-11T17:25:51.287Z,3.40
2017-09-11T17:28:18.768Z,2.83
2017-09-11T17:30:47.004Z,3.23
2017-09-11T17:33:14.472Z,4.00
2017-09-11T17:35:41.940Z,3.70
2017-09-11T17:38:09.424Z,3.23
2017-09-11T17:40:37.748Z,3.30
2017-09-11T17:43:05.211Z,3.80
2017-09-11T17:45:32.678Z,2.90
2017-09-11T17:48:00.156Z,4.30
2017-09-11T17:50:27.623Z,3.60
2017-09-11T17:52:55.847Z,2.73
2017-09-11T17:55:23.326Z,3.33
2017-09-11T17:57:50.799Z,3.10
2017-09-11T18:00:19.043Z,3.33
2017-09-11T18:02:46.544Z,3.03
2017-09-11T18:05:14.797Z,3.50
2017-09-11T18:07:42.305Z,2.90
2017-09-11T18:10:09.792Z,3.43
2017-09-11T18:12:38.015Z,3.53
2017-09-11T18:15:06.243Z,4.30
2017-09-11T18:17:33.803Z,3.47
2017-09-11T18:20:01.267Z,3.77
2017-09-11T18:22:30.377Z,5.10
2017-09-11T18:24:57.980Z,3.93
2017-09-11T18:27:25.451Z,2.80
2017-09-11T18:29:53.059Z,3.30
2017-09-11T18:32:21.328Z,2.80
2017-09-11T18:34:48.840Z,2.33
2017-09-11T18:37:16.315Z,2.30
2017-09-11T18:39:43.797Z,3.57
2017-09-11T18:42:11.353Z,2.93
2017-09-11T18:44:38.811Z,3.07
2017-09-11T18:47:06.367Z,2.40
2017-09-11T18:49:34.460Z,2.20
2017-09-11T18:52:02.685Z,2.20
2017-09-11T18:54:30.164Z,2.07
2017-09-11T18:56:57.628Z,2.50
2017-09-11T18:59:25.179Z,2.97
2017-09-11T19:01:52.692Z,1.57
2017-09-11T19:04:20.195Z,1.07
2017-09-11T19:06:47.663Z,1.00
2017-09-11T19:09:15.432Z,1.03
2017-09-11T19:11:42.884Z,0.93
2017-09-11T19:14:10.427Z,1.33
2017-09-11T19:16:38.200Z,1.10
2017-09-11T19:19:05.776Z,0.90
2017-09-11T19:21:34.011Z,1.03
2017-09-11T19:24:01.488Z,0.80
2017-09-11T19:26:28.961Z,1.20
2017-09-11T19:28:57.209Z,1.00
2017-09-11T19:31:24.656Z,1.00
2017-09-11T19:33:52.120Z,0.87
2017-09-11T19:36:19.609Z,1.20
2017-09-11T19:38:47.837Z,1.20
2017-09-11T19:41:15.346Z,1.17
2017-09-11T19:43:43.599Z,0.90
2017-09-11T19:46:11.072Z,0.97
2017-09-11T19:48:39.292Z,1.27
2017-09-11T19:51:07.086Z,0.90
2017-09-11T19:53:34.548Z,0.87
2017-09-11T19:56:02.227Z,0.90
2017-09-11T19:58:30.792Z,1.20
2017-09-11T20:00:58.288Z,0.90
2017-09-11T20:03:25.751Z,1.17
2017-09-11T20:05:53.468Z,1.00
2017-09-11T20:08:22.444Z,0.90
2017-09-11T20:10:49.926Z,1.10
2017-09-11T20:13:17.681Z,1.00
2017-09-11T20:15:45.135Z,1.20
2017-09-11T20:18:12.628Z,1.70
2017-09-11T20:20:40.360Z,1.53
2017-09-11T20:23:07.819Z,1.23
2017-09-11T20:25:35.376Z,1.67
2017-09-11T20:28:03.727Z,2.33
2017-09-11T20:30:31.187Z,1.90
2017-09-11T20:32:58.651Z,2.43
2017-09-11T20:35:26.228Z,2.97
2017-09-11T20:37:53.743Z,2.87
2017-09-11T20:40:21.241Z,2.50
2017-09-11T20:42:48.712Z,2.27
2017-09-11T20:45:16.972Z,2.90
2017-09-11T20:47:44.535Z,2.63
2017-09-11T20:50:12.035Z,2.83
2017-09-11T20:52:39.503Z,2.80
2017-09-11T20:55:06.960Z,2.90
2017-09-11T20:57:34.464Z,3.07
2017-09-11T21:00:02.027Z,1.60
2017-09-11T21:02:29.485Z,1.40
2017-09-11T21:04:57.752Z,2.80
2017-09-11T21:07:25.312Z,1.67
2017-09-11T21:09:52.783Z,2.03
2017-09-11T21:12:21.022Z,1.80
2017-09-11T21:14:48.487Z,2.27
2017-09-11T21:17:16.857Z,1.73
2017-09-11T21:19:44.327Z,1.80
2017-09-11T21:22:11.797Z,1.73
2017-09-11T21:24:39.271Z,1.90
2017-09-11T21:27:07.832Z,2.40
2017-09-11T21:29:35.296Z,2.03
2017-09-11T21:32:03.533Z,1.60
2017-09-11T21:34:30.999Z,1.67
2017-09-11T21:36:58.467Z,1.70
2017-09-11T21:39:25.936Z,2.53
2017-09-11T21:41:53.927Z,1.50
2017-09-11T21:44:22.176Z,1.90
2017-09-11T21:46:49.632Z,1.30
2017-09-11T21:49:17.137Z,1.77
2017-09-11T21:51:44.607Z,1.30
2017-09-11T21:54:12.071Z,2.00
2017-09-11T21:56:39.567Z,1.83
2017-09-11T21:59:07.060Z,1.73
2017-09-11T22:01:34.708Z,1.30
2017-09-11T22:04:02.237Z,1.10
2017-09-11T22:06:29.751Z,1.70
2017-09-11T22:08:57.248Z,2.10
2017-09-11T22:11:24.762Z,2.10
2017-09-11T22:13:52.222Z,1.27
2017-09-11T22:16:19.688Z,1.33
2017-09-11T22:18:47.184Z,1.80
2017-09-11T22:21:14.879Z,2.00
2017-09-11T22:23:42.396Z,2.00
2017-09-11T22:26:09.872Z,1.80
2017-09-11T22:28:37.420Z,1.33
2017-09-11T22:31:05.655Z,1.57
2017-09-11T22:33:33.123Z,1.53
2017-09-11T22:36:00.583Z,2.17
2017-09-11T22:38:28.059Z,1.70
2017-09-11T22:40:55.536Z,2.40
2017-09-11T22:43:23.763Z,1.80
2017-09-11T22:45:51.223Z,2.00
2017-09-11T22:48:18.698Z,1.87
2017-09-11T22:50:46.151Z,2.13
2017-09-11T22:53:13.622Z,2.20
2017-09-11T22:55:41.862Z,2.13
2017-09-11T22:58:09.343Z,2.37
2017-09-11T23:00:36.808Z,2.20
2017-09-11T23:03:04.363Z,3.07
2017-09-11T23:05:31.824Z,2.87
2017-09-11T23:07:59.296Z,2.97
2017-09-11T23:10:27.559Z,3.10
2017-09-11T23:12:55.036Z,2.37
2017-09-11T23:15:23.262Z,3.03
2017-09-11T23:17:50.839Z,2.53
2017-09-11T23:20:18.807Z,2.20
2017-09-11T23:22:46.271Z,3.57
2017-09-11T23:25:13.823Z,2.87
2017-09-11T23:27:41.280Z,2.50
2017-09-11T23:30:08.744Z,2.70
2017-09-11T23:32:36.294Z,1.50
2017-09-11T23:35:03.751Z,2.60
2017-09-11T23:37:31.211Z,2.20
2017-09-11T23:39:58.672Z,1.83
2017-09-11T23:42:26.135Z,2.87
2017-09-11T23:44:54.398Z,1.83
2017-09-11T23:47:21.974Z,2.70
2017-09-11T23:49:50.194Z,3.37
2017-09-11T23:52:17.652Z,3.00
2017-09-11T23:54:45.143Z,2.90
2017-09-11T23:57:13.812Z,4.03
2017-09-11T23:59:41.284Z,3.47
